sensor_id;sensor_type;location;lat;lon;timestamp;pressure;altitude;pressure_sealevel;temperature;humidity
72942;BME280;69665;55.822;37.330;2023-05-18T00:00:21;100004.13;;;16.20;32.69
72942;BME280;69665;55.822;37.330;2023-05-18T00:02:48;99998.66;;;16.23;32.98
72942;BME280;69665;55.822;37.330;2023-05-18T00:05:15;100015.03;;;16.31;32.70
72942;BME280;69665;55.822;37.330;2023-05-18T00:07:43;100011.44;;;16.32;32.82
72942;BME280;69665;55.822;37.330;2023-05-18T00:10:09;100009.81;;;16.29;33.07
72942;BME280;69665;55.822;37.330;2023-05-18T00:12:35;100000.78;;;16.16;32.72
72942;BME280;69665;55.822;37.330;2023-05-18T00:15:01;99998.13;;;16.16;33.25
72942;BME280;69665;55.822;37.330;2023-05-18T00:17:29;99990.84;;;16.04;33.01
72942;BME280;69665;55.822;37.330;2023-05-18T00:19:56;100010.63;;;16.14;33.34
72942;BME280;69665;55.822;37.330;2023-05-18T00:22:23;100013.47;;;16.11;33.00
72942;BME280;69665;55.822;37.330;2023-05-18T00:24:51;100001.81;;;15.98;33.04
72942;BME280;69665;55.822;37.330;2023-05-18T00:27:16;100016.38;;;16.07;33.88
72942;BME280;69665;55.822;37.330;2023-05-18T00:29:42;100011.72;;;15.94;33.65
72942;BME280;69665;55.822;37.330;2023-05-18T00:32:08;99993.13;;;15.79;33.84
72942;BME280;69665;55.822;37.330;2023-05-18T00:34:35;100012.84;;;15.90;33.54
72942;BME280;69665;55.822;37.330;2023-05-18T00:37:01;100022.59;;;15.90;33.94
72942;BME280;69665;55.822;37.330;2023-05-18T00:39:27;100014.97;;;15.84;33.83
72942;BME280;69665;55.822;37.330;2023-05-18T00:41:52;100020.69;;;15.76;34.66
72942;BME280;69665;55.822;37.330;2023-05-18T00:44:18;100026.53;;;15.83;34.10
72942;BME280;69665;55.822;37.330;2023-05-18T00:46:44;100015.78;;;15.69;33.82
72942;BME280;69665;55.822;37.330;2023-05-18T00:49:10;100025.06;;;15.77;34.55
72942;BME280;69665;55.822;37.330;2023-05-18T00:51:37;100008.84;;;15.66;34.64
72942;BME280;69665;55.822;37.330;2023-05-18T00:54:03;100021.09;;;15.69;34.81
72942;BME280;69665;55.822;37.330;2023-05-18T00:56:30;100018.28;;;15.72;35.34
72942;BME280;69665;55.822;37.330;2023-05-18T00:59:00;100014.59;;;15.74;35.40
72942;BME280;69665;55.822;37.330;2023-05-18T01:01:28;100028.34;;;15.82;34.76
72942;BME280;69665;55.822;37.330;2023-05-18T01:03:54;100022.50;;;15.76;33.97
72942;BME280;69665;55.822;37.330;2023-05-18T01:06:31;100018.19;;;15.73;34.46
72942;BME280;69665;55.822;37.330;2023-05-18T01:09:04;100021.41;;;15.63;35.06
72942;BME280;69665;55.822;37.330;2023-05-18T01:11:48;100019.03;;;15.58;35.21
72942;BME280;69665;55.822;37.330;2023-05-18T01:17:11;100013.28;;;15.48;36.29
72942;BME280;69665;55.822;37.330;2023-05-18T01:28:08;100023.56;;;15.56;35.87
72942;BME280;69665;55.822;37.330;2023-05-18T01:30:40;100005.75;;;15.58;35.59
72942;BME280;69665;55.822;37.330;2023-05-18T01:33:09;100008.22;;;15.61;34.60
72942;BME280;69665;55.822;37.330;2023-05-18T01:35:35;100005.09;;;15.70;35.04
72942;BME280;69665;55.822;37.330;2023-05-18T01:38:02;99990.75;;;15.57;34.97
72942;BME280;69665;55.822;37.330;2023-05-18T01:40:32;99999.50;;;15.59;35.66
72942;BME280;69665;55.822;37.330;2023-05-18T01:43:04;100019.84;;;15.76;35.67
72942;BME280;69665;55.822;37.330;2023-05-18T01:45:34;99998.28;;;15.65;35.45
72942;BME280;69665;55.822;37.330;2023-05-18T01:48:02;100021.22;;;15.83;34.45
72942;BME280;69665;55.822;37.330;2023-05-18T01:50:33;100007.19;;;15.81;35.63
72942;BME280;69665;55.822;37.330;2023-05-18T01:53:11;100021.25;;;15.99;35.96
72942;BME280;69665;55.822;37.330;2023-05-18T01:55:39;100022.03;;;16.01;34.65
72942;BME280;69665;55.822;37.330;2023-05-18T01:58:07;100009.06;;;15.94;34.86
72942;BME280;69665;55.822;37.330;2023-05-18T02:00:34;100024.00;;;16.13;35.56
72942;BME280;69665;55.822;37.330;2023-05-18T02:03:00;100030.53;;;16.23;34.75
72942;BME280;69665;55.822;37.330;2023-05-18T02:05:26;100025.66;;;16.31;34.50
72942;BME280;69665;55.822;37.330;2023-05-18T02:07:52;100035.53;;;16.45;34.21
72942;BME280;69665;55.822;37.330;2023-05-18T02:10:18;100036.97;;;16.50;34.20
72942;BME280;69665;55.822;37.330;2023-05-18T02:12:45;100032.28;;;16.55;33.90
72942;BME280;69665;55.822;37.330;2023-05-18T02:15:13;100023.97;;;16.61;33.82
72942;BME280;69665;55.822;37.330;2023-05-18T02:17:39;100033.75;;;16.77;33.99
72942;BME280;69665;55.822;37.330;2023-05-18T02:20:25;100041.22;;;16.86;33.63
72942;BME280;69665;55.822;37.330;2023-05-18T02:22:50;100038.84;;;16.95;33.82
72942;BME280;69665;55.822;37.330;2023-05-18T02:25:16;100029.84;;;16.98;33.50
72942;BME280;69665;55.822;37.330;2023-05-18T02:27:42;100038.75;;;17.13;33.38
72942;BME280;69665;55.822;37.330;2023-05-18T02:30:08;100044.19;;;17.25;32.89
72942;BME280;69665;55.822;37.330;2023-05-18T02:32:34;100034.53;;;17.39;33.28
72942;BME280;69665;55.822;37.330;2023-05-18T02:35:06;100039.88;;;17.53;32.61
72942;BME280;69665;55.822;37.330;2023-05-18T02:37:31;100028.81;;;17.75;32.20
72942;BME280;69665;55.822;37.330;2023-05-18T02:40:01;100023.59;;;17.87;32.50
72942;BME280;69665;55.822;37.330;2023-05-18T02:42:29;100014.59;;;18.31;31.72
72942;BME280;69665;55.822;37.330;2023-05-18T02:44:55;100018.94;;;19.14;31.25
72942;BME280;69665;55.822;37.330;2023-05-18T02:47:20;100023.81;;;20.60;30.29
72942;BME280;69665;55.822;37.330;2023-05-18T02:49:46;100024.28;;;21.94;29.38
72942;BME280;69665;55.822;37.330;2023-05-18T02:52:12;100014.69;;;23.22;27.96
72942;BME280;69665;55.822;37.330;2023-05-18T02:54:38;100020.50;;;24.51;26.73
72942;BME280;69665;55.822;37.330;2023-05-18T02:57:09;100018.00;;;25.84;26.10
72942;BME280;69665;55.822;37.330;2023-05-18T02:59:59;100013.66;;;27.11;24.55
72942;BME280;69665;55.822;37.330;2023-05-18T03:02:24;100004.91;;;28.12;23.38
72942;BME280;69665;55.822;37.330;2023-05-18T03:04:52;100012.38;;;29.02;23.00
72942;BME280;69665;55.822;37.330;2023-05-18T03:07:24;100005.25;;;29.99;22.14
72942;BME280;69665;55.822;37.330;2023-05-18T03:09:52;100014.22;;;30.86;21.29
72942;BME280;69665;55.822;37.330;2023-05-18T03:12:18;100015.34;;;31.60;20.30
72942;BME280;69665;55.822;37.330;2023-05-18T03:14:45;100019.19;;;31.88;19.76
72942;BME280;69665;55.822;37.330;2023-05-18T03:17:10;100014.97;;;32.45;19.84
72942;BME280;69665;55.822;37.330;2023-05-18T03:19:36;100021.94;;;32.98;19.53
72942;BME280;69665;55.822;37.330;2023-05-18T03:22:02;100019.59;;;33.59;19.54
72942;BME280;69665;55.822;37.330;2023-05-18T03:24:29;100022.59;;;34.26;19.13
72942;BME280;69665;55.822;37.330;2023-05-18T03:27:05;100025.66;;;34.99;18.55
72942;BME280;69665;55.822;37.330;2023-05-18T03:29:34;100016.06;;;35.49;17.94
72942;BME280;69665;55.822;37.330;2023-05-18T03:32:02;100023.59;;;36.20;17.48
72942;BME280;69665;55.822;37.330;2023-05-18T03:34:27;100020.44;;;36.81;17.36
72942;BME280;69665;55.822;37.330;2023-05-18T03:36:53;100019.34;;;37.26;16.78
72942;BME280;69665;55.822;37.330;2023-05-18T03:39:19;100026.81;;;37.69;16.08
72942;BME280;69665;55.822;37.330;2023-05-18T03:41:46;100018.06;;;37.79;16.20
72942;BME280;69665;55.822;37.330;2023-05-18T03:44:13;100021.97;;;38.32;16.19
72942;BME280;69665;55.822;37.330;2023-05-18T03:46:39;100022.94;;;38.75;15.79
72942;BME280;69665;55.822;37.330;2023-05-18T03:49:05;100015.88;;;38.97;15.41
72942;BME280;69665;55.822;37.330;2023-05-18T03:51:36;100026.75;;;39.22;15.12
72942;BME280;69665;55.822;37.330;2023-05-18T03:54:03;100040.16;;;39.48;15.40
72942;BME280;69665;55.822;37.330;2023-05-18T03:56:28;100021.69;;;39.49;15.02
72942;BME280;69665;55.822;37.330;2023-05-18T03:58:56;100040.88;;;39.79;15.61
72942;BME280;69665;55.822;37.330;2023-05-18T04:01:23;100018.03;;;40.01;15.35
72942;BME280;69665;55.822;37.330;2023-05-18T04:03:50;100017.97;;;40.25;14.29
72942;BME280;69665;55.822;37.330;2023-05-18T04:06:16;100040.47;;;40.68;14.60
72942;BME280;69665;55.822;37.330;2023-05-18T04:08:41;100041.84;;;41.40;14.47
72942;BME280;69665;55.822;37.330;2023-05-18T04:11:08;100045.41;;;42.02;14.09
72942;BME280;69665;55.822;37.330;2023-05-18T04:13:36;100049.75;;;42.53;13.48
72942;BME280;69665;55.822;37.330;2023-05-18T04:16:02;100028.06;;;42.72;13.58
72942;BME280;69665;55.822;37.330;2023-05-18T04:18:28;100041.09;;;43.20;13.77
72942;BME280;69665;55.822;37.330;2023-05-18T04:20:55;100041.44;;;43.24;13.41
72942;BME280;69665;55.822;37.330;2023-05-18T04:23:20;100040.81;;;43.49;13.65
72942;BME280;69665;55.822;37.330;2023-05-18T04:25:47;100040.44;;;43.67;13.01
72942;BME280;69665;55.822;37.330;2023-05-18T04:28:17;100033.28;;;44.13;13.24
72942;BME280;69665;55.822;37.330;2023-05-18T04:30:43;100046.00;;;44.51;13.35
72942;BME280;69665;55.822;37.330;2023-05-18T04:33:10;100040.88;;;44.90;12.50
72942;BME280;69665;55.822;37.330;2023-05-18T04:35:37;100037.63;;;45.44;12.81
72942;BME280;69665;55.822;37.330;2023-05-18T04:38:03;100035.16;;;45.63;12.66
72942;BME280;69665;55.822;37.330;2023-05-18T04:40:30;100038.38;;;46.31;12.38
72942;BME280;69665;55.822;37.330;2023-05-18T04:42:58;100051.25;;;46.86;11.95
72942;BME280;69665;55.822;37.330;2023-05-18T04:45:27;100028.94;;;46.86;11.88
72942;BME280;69665;55.822;37.330;2023-05-18T04:47:55;100047.09;;;46.84;12.60
72942;BME280;69665;55.822;37.330;2023-05-18T04:50:21;100040.72;;;47.61;11.93
72942;BME280;69665;55.822;37.330;2023-05-18T04:52:51;100037.88;;;48.24;11.81
72942;BME280;69665;55.822;37.330;2023-05-18T04:55:19;100036.81;;;48.87;9.29
72942;BME280;69665;55.822;37.330;2023-05-18T04:57:54;100020.34;;;49.23;11.62
72942;BME280;69665;55.822;37.330;2023-05-18T05:00:24;100028.06;;;49.45;11.08
72942;BME280;69665;55.822;37.330;2023-05-18T05:02:50;100043.28;;;49.90;10.90
72942;BME280;69665;55.822;37.330;2023-05-18T05:05:16;100039.44;;;49.86;11.26
72942;BME280;69665;55.822;37.330;2023-05-18T05:07:43;100020.56;;;49.91;11.26
72942;BME280;69665;55.822;37.330;2023-05-18T05:10:09;100035.13;;;50.48;11.21
72942;BME280;69665;55.822;37.330;2023-05-18T05:12:39;100041.75;;;50.80;9.58
72942;BME280;69665;55.822;37.330;2023-05-18T05:15:06;100029.69;;;50.93;11.03
72942;BME280;69665;55.822;37.330;2023-05-18T05:17:32;100006.56;;;51.32;10.47
72942;BME280;69665;55.822;37.330;2023-05-18T05:20:00;100020.72;;;51.49;10.81
72942;BME280;69665;55.822;37.330;2023-05-18T05:22:26;100030.41;;;52.28;10.32
72942;BME280;69665;55.822;37.330;2023-05-18T05:24:53;100016.16;;;52.89;10.31
72942;BME280;69665;55.822;37.330;2023-05-18T05:27:19;100025.13;;;53.09;10.24
72942;BME280;69665;55.822;37.330;2023-05-18T05:29:46;100028.91;;;52.87;10.21
72942;BME280;69665;55.822;37.330;2023-05-18T05:32:12;100032.56;;;53.13;10.57
72942;BME280;69665;55.822;37.330;2023-05-18T05:34:39;100033.06;;;53.33;10.46
72942;BME280;69665;55.822;37.330;2023-05-18T05:37:05;100027.91;;;54.07;9.71
72942;BME280;69665;55.822;37.330;2023-05-18T05:39:31;100024.72;;;54.56;10.15
72942;BME280;69665;55.822;37.330;2023-05-18T05:41:57;100030.03;;;54.57;10.42
72942;BME280;69665;55.822;37.330;2023-05-18T05:44:24;100015.84;;;54.66;9.69
72942;BME280;69665;55.822;37.330;2023-05-18T05:46:49;100024.00;;;55.30;9.54
72942;BME280;69665;55.822;37.330;2023-05-18T05:49:16;100015.59;;;55.54;9.73
72942;BME280;69665;55.822;37.330;2023-05-18T05:51:41;100032.19;;;55.23;9.59
72942;BME280;69665;55.822;37.330;2023-05-18T05:54:07;100014.09;;;54.52;9.47
72942;BME280;69665;55.822;37.330;2023-05-18T05:56:32;100003.16;;;54.51;10.48
72942;BME280;69665;55.822;37.330;2023-05-18T05:58:58;100005.81;;;54.56;9.92
72942;BME280;69665;55.822;37.330;2023-05-18T06:01:24;100017.28;;;55.13;9.18
72942;BME280;69665;55.822;37.330;2023-05-18T06:03:50;100021.44;;;55.94;10.11
72942;BME280;69665;55.822;37.330;2023-05-18T06:06:16;100024.19;;;56.39;9.70
72942;BME280;69665;55.822;37.330;2023-05-18T06:08:42;100010.69;;;55.75;10.08
72942;BME280;69665;55.822;37.330;2023-05-18T06:11:08;100021.88;;;55.39;9.27
72942;BME280;69665;55.822;37.330;2023-05-18T06:13:33;100020.06;;;56.25;9.84
72942;BME280;69665;55.822;37.330;2023-05-18T06:16:00;100011.91;;;56.72;10.17
72942;BME280;69665;55.822;37.330;2023-05-18T06:18:26;100026.19;;;56.51;9.16
72942;BME280;69665;55.822;37.330;2023-05-18T06:20:56;100021.22;;;56.72;9.72
72942;BME280;69665;55.822;37.330;2023-05-18T06:23:22;100014.19;;;56.94;9.66
72942;BME280;69665;55.822;37.330;2023-05-18T06:26:04;100025.06;;;57.48;9.01
72942;BME280;69665;55.822;37.330;2023-05-18T06:28:56;100020.81;;;57.70;8.66
72942;BME280;69665;55.822;37.330;2023-05-18T06:31:42;100025.34;;;58.02;9.07
72942;BME280;69665;55.822;37.330;2023-05-18T06:34:16;100025.97;;;58.27;8.50
72942;BME280;69665;55.822;37.330;2023-05-18T06:36:42;100015.00;;;58.10;9.29
72942;BME280;69665;55.822;37.330;2023-05-18T06:39:07;100023.09;;;58.59;8.88
72942;BME280;69665;55.822;37.330;2023-05-18T06:41:33;100026.63;;;58.71;9.18
72942;BME280;69665;55.822;37.330;2023-05-18T06:44:00;100017.78;;;58.57;8.54
72942;BME280;69665;55.822;37.330;2023-05-18T06:46:34;100017.22;;;58.52;8.73
72942;BME280;69665;55.822;37.330;2023-05-18T06:49:01;100014.63;;;57.80;8.70
72942;BME280;69665;55.822;37.330;2023-05-18T06:51:27;100018.84;;;58.02;8.55
72942;BME280;69665;55.822;37.330;2023-05-18T06:53:54;100013.88;;;58.30;8.43
72942;BME280;69665;55.822;37.330;2023-05-18T06:56:20;100022.06;;;59.05;7.89
72942;BME280;69665;55.822;37.330;2023-05-18T06:58:46;100029.34;;;58.84;8.82
72942;BME280;69665;55.822;37.330;2023-05-18T07:01:13;100025.78;;;58.04;9.38
72942;BME280;69665;55.822;37.330;2023-05-18T07:03:38;100005.72;;;58.29;8.57
72942;BME280;69665;55.822;37.330;2023-05-18T07:06:05;100024.25;;;57.47;8.21
72942;BME280;69665;55.822;37.330;2023-05-18T07:08:31;100015.66;;;56.76;8.50
72942;BME280;69665;55.822;37.330;2023-05-18T07:10:57;100018.63;;;55.94;8.54
72942;BME280;69665;55.822;37.330;2023-05-18T07:13:24;99993.50;;;55.14;8.76
72942;BME280;69665;55.822;37.330;2023-05-18T07:15:50;100010.63;;;54.97;9.42
72942;BME280;69665;55.822;37.330;2023-05-18T07:18:15;100011.56;;;54.60;8.72
72942;BME280;69665;55.822;37.330;2023-05-18T07:20:41;100006.78;;;54.81;8.80
72942;BME280;69665;55.822;37.330;2023-05-18T07:23:07;100008.81;;;55.34;8.19
72942;BME280;69665;55.822;37.330;2023-05-18T07:25:32;100009.22;;;56.51;8.66
72942;BME280;69665;55.822;37.330;2023-05-18T07:28:00;100016.09;;;57.46;7.48
72942;BME280;69665;55.822;37.330;2023-05-18T07:30:26;100002.72;;;57.03;8.66
72942;BME280;69665;55.822;37.330;2023-05-18T07:32:52;99995.28;;;57.10;8.05
72942;BME280;69665;55.822;37.330;2023-05-18T07:35:20;100014.28;;;57.54;7.94
72942;BME280;69665;55.822;37.330;2023-05-18T07:37:48;100015.88;;;56.83;8.49
72942;BME280;69665;55.822;37.330;2023-05-18T07:40:13;100008.50;;;56.05;7.83
72942;BME280;69665;55.822;37.330;2023-05-18T07:42:40;100007.22;;;56.15;7.68
72942;BME280;69665;55.822;37.330;2023-05-18T07:45:06;100002.78;;;56.66;7.76
72942;BME280;69665;55.822;37.330;2023-05-18T07:47:32;99989.50;;;56.55;7.62
72942;BME280;69665;55.822;37.330;2023-05-18T07:50:01;99991.88;;;55.92;7.01
72942;BME280;69665;55.822;37.330;2023-05-18T07:52:28;99990.81;;;56.45;8.28
72942;BME280;69665;55.822;37.330;2023-05-18T07:54:55;99992.94;;;55.99;8.06
72942;BME280;69665;55.822;37.330;2023-05-18T07:57:27;100008.75;;;55.22;7.83
72942;BME280;69665;55.822;37.330;2023-05-18T07:59:55;99994.09;;;54.37;5.78
72942;BME280;69665;55.822;37.330;2023-05-18T08:02:20;99999.78;;;53.99;8.40
72942;BME280;69665;55.822;37.330;2023-05-18T08:04:46;99983.28;;;53.71;8.31
72942;BME280;69665;55.822;37.330;2023-05-18T08:07:12;100000.84;;;54.95;7.91
72942;BME280;69665;55.822;37.330;2023-05-18T08:09:38;99998.97;;;55.86;7.43
72942;BME280;69665;55.822;37.330;2023-05-18T08:12:05;100003.03;;;55.43;8.50
72942;BME280;69665;55.822;37.330;2023-05-18T08:14:31;100000.56;;;55.29;6.59
72942;BME280;69665;55.822;37.330;2023-05-18T08:16:56;99999.22;;;54.85;8.04
72942;BME280;69665;55.822;37.330;2023-05-18T08:19:23;99998.22;;;55.43;7.51
72942;BME280;69665;55.822;37.330;2023-05-18T08:21:48;99989.16;;;55.95;7.91
72942;BME280;69665;55.822;37.330;2023-05-18T08:24:14;99979.50;;;56.33;7.58
72942;BME280;69665;55.822;37.330;2023-05-18T08:26:39;99978.94;;;53.01;9.07
72942;BME280;69665;55.822;37.330;2023-05-18T08:29:05;99966.13;;;53.30;8.49
72942;BME280;69665;55.822;37.330;2023-05-18T08:31:37;99988.22;;;54.71;7.84
72942;BME280;69665;55.822;37.330;2023-05-18T08:34:04;99992.50;;;55.19;8.64
72942;BME280;69665;55.822;37.330;2023-05-18T08:36:31;99986.22;;;54.51;7.92
72942;BME280;69665;55.822;37.330;2023-05-18T08:38:58;99976.88;;;52.02;8.79
72942;BME280;69665;55.822;37.330;2023-05-18T08:44:05;99971.63;;;47.72;8.78
72942;BME280;69665;55.822;37.330;2023-05-18T08:46:38;99970.75;;;48.48;9.36
72942;BME280;69665;55.822;37.330;2023-05-18T08:49:05;99966.44;;;47.89;9.75
72942;BME280;69665;55.822;37.330;2023-05-18T08:51:35;99963.88;;;49.16;8.63
72942;BME280;69665;55.822;37.330;2023-05-18T08:54:02;99964.88;;;49.71;8.79
72942;BME280;69665;55.822;37.330;2023-05-18T08:56:31;99972.59;;;50.62;8.67
72942;BME280;69665;55.822;37.330;2023-05-18T08:59:03;99955.50;;;51.30;8.28
72942;BME280;69665;55.822;37.330;2023-05-18T09:01:32;99945.38;;;51.82;8.44
72942;BME280;69665;55.822;37.330;2023-05-18T09:03:59;99959.00;;;51.36;8.52
72942;BME280;69665;55.822;37.330;2023-05-18T09:06:25;99954.03;;;51.10;8.33
72942;BME280;69665;55.822;37.330;2023-05-18T09:08:53;99958.66;;;50.43;8.16
72942;BME280;69665;55.822;37.330;2023-05-18T09:11:20;99945.00;;;50.14;7.53
72942;BME280;69665;55.822;37.330;2023-05-18T09:13:48;99954.97;;;50.06;8.27
72942;BME280;69665;55.822;37.330;2023-05-18T09:16:14;99957.09;;;49.68;6.40
72942;BME280;69665;55.822;37.330;2023-05-18T09:18:40;99933.81;;;46.88;9.22
72942;BME280;69665;55.822;37.330;2023-05-18T09:21:05;99946.38;;;44.18;10.21
72942;BME280;69665;55.822;37.330;2023-05-18T09:23:32;99923.59;;;41.47;10.69
72942;BME280;69665;55.822;37.330;2023-05-18T09:25:59;99942.91;;;39.99;10.96
72942;BME280;69665;55.822;37.330;2023-05-18T09:28:26;99946.84;;;38.92;11.81
72942;BME280;69665;55.822;37.330;2023-05-18T09:30:52;99948.03;;;37.99;12.52
72942;BME280;69665;55.822;37.330;2023-05-18T09:33:19;99940.50;;;36.95;12.26
72942;BME280;69665;55.822;37.330;2023-05-18T09:35:51;99940.66;;;36.18;12.04
72942;BME280;69665;55.822;37.330;2023-05-18T09:38:20;99949.88;;;35.59;12.54
72942;BME280;69665;55.822;37.330;2023-05-18T09:40:47;99946.13;;;35.33;12.95
72942;BME280;69665;55.822;37.330;2023-05-18T09:43:16;99937.44;;;35.03;12.85
72942;BME280;69665;55.822;37.330;2023-05-18T09:45:43;99945.75;;;34.62;12.56
72942;BME280;69665;55.822;37.330;2023-05-18T09:48:09;99928.81;;;33.91;12.94
72942;BME280;69665;55.822;37.330;2023-05-18T09:50:35;99929.38;;;33.52;13.33
72942;BME280;69665;55.822;37.330;2023-05-18T09:53:08;99938.72;;;33.15;13.26
72942;BME280;69665;55.822;37.330;2023-05-18T09:55:47;99947.13;;;32.92;13.96
72942;BME280;69665;55.822;37.330;2023-05-18T09:58:13;99937.38;;;32.83;13.65
72942;BME280;69665;55.822;37.330;2023-05-18T10:00:41;99946.22;;;33.07;13.73
72942;BME280;69665;55.822;37.330;2023-05-18T10:03:21;99946.00;;;33.08;14.09
72942;BME280;69665;55.822;37.330;2023-05-18T10:05:48;99944.13;;;33.09;13.65
72942;BME280;69665;55.822;37.330;2023-05-18T10:08:14;99929.06;;;32.91;13.52
72942;BME280;69665;55.822;37.330;2023-05-18T10:10:45;99939.84;;;33.21;13.86
72942;BME280;69665;55.822;37.330;2023-05-18T10:13:13;99938.84;;;33.50;13.25
72942;BME280;69665;55.822;37.330;2023-05-18T10:15:49;99928.69;;;33.44;13.84
72942;BME280;69665;55.822;37.330;2023-05-18T10:18:23;99916.88;;;33.36;13.80
72942;BME280;69665;55.822;37.330;2023-05-18T10:20:50;99918.72;;;33.08;13.68
72942;BME280;69665;55.822;37.330;2023-05-18T10:23:17;99923.94;;;32.82;13.83
72942;BME280;69665;55.822;37.330;2023-05-18T10:25:45;99924.34;;;32.64;13.91
72942;BME280;69665;55.822;37.330;2023-05-18T10:28:14;99929.47;;;32.52;13.98
72942;BME280;69665;55.822;37.330;2023-05-18T10:30:42;99922.19;;;32.38;13.90
72942;BME280;69665;55.822;37.330;2023-05-18T10:33:09;99922.19;;;32.38;13.89
72942;BME280;69665;55.822;37.330;2023-05-18T10:35:37;99920.41;;;32.30;14.33
72942;BME280;69665;55.822;37.330;2023-05-18T10:38:04;99933.66;;;32.04;13.80
72942;BME280;69665;55.822;37.330;2023-05-18T10:40:31;99927.84;;;31.78;13.80
72942;BME280;69665;55.822;37.330;2023-05-18T10:43:01;99926.72;;;31.72;14.33
72942;BME280;69665;55.822;37.330;2023-05-18T10:45:28;99919.94;;;31.38;14.47
72942;BME280;69665;55.822;37.330;2023-05-18T10:47:53;99927.75;;;31.19;14.44
72942;BME280;69665;55.822;37.330;2023-05-18T10:50:21;99925.47;;;31.08;14.46
72942;BME280;69665;55.822;37.330;2023-05-18T10:52:49;99907.13;;;31.01;14.70
72942;BME280;69665;55.822;37.330;2023-05-18T10:55:16;99917.72;;;31.19;14.27
72942;BME280;69665;55.822;37.330;2023-05-18T10:57:53;99916.78;;;31.27;14.66
72942;BME280;69665;55.822;37.330;2023-05-18T11:00:20;99914.47;;;31.38;14.79
72942;BME280;69665;55.822;37.330;2023-05-18T11:02:45;99919.75;;;31.55;14.38
72942;BME280;69665;55.822;37.330;2023-05-18T11:05:11;99912.06;;;31.58;14.35
72942;BME280;69665;55.822;37.330;2023-05-18T11:07:37;99916.91;;;31.48;14.37
72942;BME280;69665;55.822;37.330;2023-05-18T11:10:08;99904.91;;;31.43;14.96
72942;BME280;69665;55.822;37.330;2023-05-18T11:12:36;99891.16;;;31.21;14.61
72942;BME280;69665;55.822;37.330;2023-05-18T11:15:03;99910.59;;;31.18;15.05
72942;BME280;69665;55.822;37.330;2023-05-18T11:17:30;99910.31;;;31.13;14.89
72942;BME280;69665;55.822;37.330;2023-05-18T11:27:37;99912.03;;;30.29;15.63
72942;BME280;69665;55.822;37.330;2023-05-18T11:30:03;99913.84;;;30.14;15.33
72942;BME280;69665;55.822;37.330;2023-05-18T11:32:29;99915.06;;;29.95;15.43
72942;BME280;69665;55.822;37.330;2023-05-18T11:35:00;99896.44;;;29.84;15.22
72942;BME280;69665;55.822;37.330;2023-05-18T11:43:08;99895.38;;;29.46;15.28
72942;BME280;69665;55.822;37.330;2023-05-18T11:45:33;99890.81;;;29.30;15.85
72942;BME280;69665;55.822;37.330;2023-05-18T11:48:01;99893.53;;;29.14;15.54
72942;BME280;69665;55.822;37.330;2023-05-18T11:50:29;99893.22;;;29.01;15.77
72942;BME280;69665;55.822;37.330;2023-05-18T11:52:56;99888.63;;;28.85;16.37
72942;BME280;69665;55.822;37.330;2023-05-18T11:55:21;99900.31;;;28.78;15.58
72942;BME280;69665;55.822;37.330;2023-05-18T11:57:49;99899.25;;;28.62;16.20
72942;BME280;69665;55.822;37.330;2023-05-18T12:00:22;99890.47;;;28.52;16.61
72942;BME280;69665;55.822;37.330;2023-05-18T12:02:49;99887.22;;;28.49;16.38
72942;BME280;69665;55.822;37.330;2023-05-18T12:05:16;99879.94;;;28.49;16.37
72942;BME280;69665;55.822;37.330;2023-05-18T12:07:42;99892.50;;;28.58;16.45
72942;BME280;69665;55.822;37.330;2023-05-18T12:10:10;99879.94;;;28.49;16.34
72942;BME280;69665;55.822;37.330;2023-05-18T12:12:37;99881.25;;;28.37;16.61
72942;BME280;69665;55.822;37.330;2023-05-18T12:15:05;99892.44;;;28.26;16.54
72942;BME280;69665;55.822;37.330;2023-05-18T12:20:03;99886.22;;;28.08;16.48
72942;BME280;69665;55.822;37.330;2023-05-18T12:22:29;99880.16;;;28.06;16.42
72942;BME280;69665;55.822;37.330;2023-05-18T12:24:54;99875.06;;;28.02;16.60
72942;BME280;69665;55.822;37.330;2023-05-18T12:27:20;99886.44;;;28.14;16.60
72942;BME280;69665;55.822;37.330;2023-05-18T12:29:47;99885.69;;;28.30;16.40
72942;BME280;69665;55.822;37.330;2023-05-18T12:32:12;99879.41;;;28.37;16.53
72942;BME280;69665;55.822;37.330;2023-05-18T12:34:38;99887.56;;;28.62;16.44
72942;BME280;69665;55.822;37.330;2023-05-18T12:37:07;99883.56;;;28.82;16.76
72942;BME280;69665;55.822;37.330;2023-05-18T12:39:33;99881.00;;;28.97;16.35
72942;BME280;69665;55.822;37.330;2023-05-18T12:42:12;99885.38;;;29.14;17.11
72942;BME280;69665;55.822;37.330;2023-05-18T12:44:40;99883.00;;;29.27;16.60
72942;BME280;69665;55.822;37.330;2023-05-18T12:47:09;99870.47;;;29.26;16.51
72942;BME280;69665;55.822;37.330;2023-05-18T12:49:36;99874.19;;;29.42;16.54
72942;BME280;69665;55.822;37.330;2023-05-18T12:52:13;99876.03;;;29.49;16.95
72942;BME280;69665;55.822;37.330;2023-05-18T12:57:19;99877.88;;;29.57;16.37
72942;BME280;69665;55.822;37.330;2023-05-18T12:59:48;99878.91;;;29.56;16.67
72942;BME280;69665;55.822;37.330;2023-05-18T13:02:33;99879.78;;;29.40;16.90
72942;BME280;69665;55.822;37.330;2023-05-18T13:05:04;99879.63;;;29.25;16.66
72942;BME280;69665;55.822;37.330;2023-05-18T13:07:34;99880.63;;;29.16;16.48
72942;BME280;69665;55.822;37.330;2023-05-18T13:10:01;99880.00;;;29.06;16.62
72942;BME280;69665;55.822;37.330;2023-05-18T13:12:45;99880.00;;;28.98;17.87
72942;BME280;69665;55.822;37.330;2023-05-18T13:15:22;99876.28;;;28.83;17.67
72942;BME280;69665;55.822;37.330;2023-05-18T13:17:57;99879.94;;;28.65;17.41
72942;BME280;69665;55.822;37.330;2023-05-18T13:20:45;99878.75;;;28.44;17.70
72942;BME280;69665;55.822;37.330;2023-05-18T13:23:17;99876.50;;;28.23;17.28